sensor_id;sensor_type;location;lat;lon;timestamp;P1;durP1;ratioP1;P2;durP2;ratioP2
16075;SDS011;8142;48.242;11.644;2024-02-15T00:02:03;1.83;;;1.47;;
16075;SDS011;8142;48.242;11.644;2024-02-15T00:04:30;2.37;;;1.40;;
16075;SDS011;8142;48.242;11.644;2024-02-15T00:06:57;2.47;;;1.70;;
16075;SDS011;8142;48.242;11.644;2024-02-15T00:09:23;1.67;;;1.40;;
16075;SDS011;8142;48.242;11.644;2024-02-15T00:11:49;1.70;;;1.40;;
16075;SDS011;8142;48.242;11.644;2024-02-15T00:14:15;1.97;;;1.70;;
16075;SDS011;8142;48.242;11.644;2024-02-15T00:16:41;2.20;;;1.70;;
16075;SDS011;8142;48.242;11.644;2024-02-15T00:19:07;1.83;;;1.50;;
16075;SDS011;8142;48.242;11.644;2024-02-15T00:21:33;1.83;;;1.70;;
16075;SDS011;8142;48.242;11.644;2024-02-15T00:24:00;2.30;;;1.70;;
16075;SDS011;8142;48.242;11.644;2024-02-15T00:26:27;1.87;;;1.70;;
16075;SDS011;8142;48.242;11.644;2024-02-15T00:28:52;1.97;;;1.70;;
16075;SDS011;8142;48.242;11.644;2024-02-15T00:31:19;2.33;;;1.70;;
16075;SDS011;8142;48.242;11.644;2024-02-15T00:33:45;2.40;;;1.90;;
16075;SDS011;8142;48.242;11.644;2024-02-15T00:36:11;1.83;;;1.70;;
16075;SDS011;8142;48.242;11.644;2024-02-15T00:38:37;1.83;;;1.57;;
16075;SDS011;8142;48.242;11.644;2024-02-15T00:41:04;2.13;;;1.73;;
16075;SDS011;8142;48.242;11.644;2024-02-15T00:43:33;1.97;;;1.77;;
16075;SDS011;8142;48.242;11.644;2024-02-15T00:46:01;3.17;;;1.77;;
16075;SDS011;8142;48.242;11.644;2024-02-15T00:48:26;1.80;;;1.70;;
16075;SDS011;8142;48.242;11.644;2024-02-15T00:50:55;2.07;;;1.80;;
16075;SDS011;8142;48.242;11.644;2024-02-15T00:53:22;2.23;;;1.90;;
16075;SDS011;8142;48.242;11.644;2024-02-15T00:55:48;2.53;;;1.70;;
16075;SDS011;8142;48.242;11.644;2024-02-15T00:58:14;2.30;;;2.00;;
16075;SDS011;8142;48.242;11.644;2024-02-15T01:00:40;2.30;;;1.70;;
16075;SDS011;8142;48.242;11.644;2024-02-15T01:03:06;1.80;;;1.70;;
16075;SDS011;8142;48.242;11.644;2024-02-15T01:05:32;2.30;;;1.80;;
16075;SDS011;8142;48.242;11.644;2024-02-15T01:07:59;3.50;;;2.17;;
16075;SDS011;8142;48.242;11.644;2024-02-15T01:10:25;2.77;;;2.00;;
16075;SDS011;8142;48.242;11.644;2024-02-15T01:12:52;1.77;;;1.67;;
16075;SDS011;8142;48.242;11.644;2024-02-15T01:15:18;2.07;;;1.87;;
16075;SDS011;8142;48.242;11.644;2024-02-15T01:17:45;3.37;;;1.80;;
16075;SDS011;8142;48.242;11.644;2024-02-15T01:20:11;2.80;;;1.60;;
16075;SDS011;8142;48.242;11.644;2024-02-15T01:22:38;2.50;;;1.90;;
16075;SDS011;8142;48.242;11.644;2024-02-15T01:25:04;2.47;;;1.80;;
16075;SDS011;8142;48.242;11.644;2024-02-15T01:27:31;2.67;;;1.60;;
16075;SDS011;8142;48.242;11.644;2024-02-15T01:29:57;2.40;;;1.60;;
16075;SDS011;8142;48.242;11.644;2024-02-15T01:32:23;2.63;;;1.73;;
16075;SDS011;8142;48.242;11.644;2024-02-15T01:34:49;1.83;;;1.53;;
16075;SDS011;8142;48.242;11.644;2024-02-15T01:37:19;2.73;;;1.70;;
16075;SDS011;8142;48.242;11.644;2024-02-15T01:39:46;2.33;;;1.70;;
16075;SDS011;8142;48.242;11.644;2024-02-15T01:42:12;2.10;;;1.90;;
16075;SDS011;8142;48.242;11.644;2024-02-15T01:44:42;1.93;;;1.60;;
16075;SDS011;8142;48.242;11.644;2024-02-15T01:47:10;2.40;;;1.60;;
16075;SDS011;8142;48.242;11.644;2024-02-15T01:49:36;2.63;;;1.70;;
16075;SDS011;8142;48.242;11.644;2024-02-15T01:52:02;2.10;;;1.90;;
16075;SDS011;8142;48.242;11.644;2024-02-15T01:54:33;2.33;;;1.60;;
16075;SDS011;8142;48.242;11.644;2024-02-15T01:57:01;2.17;;;1.70;;
16075;SDS011;8142;48.242;11.644;2024-02-15T01:59:28;2.60;;;2.03;;
16075;SDS011;8142;48.242;11.644;2024-02-15T02:01:56;2.13;;;1.70;;
16075;SDS011;8142;48.242;11.644;2024-02-15T02:04:22;1.63;;;1.53;;
16075;SDS011;8142;48.242;11.644;2024-02-15T02:06:48;2.73;;;1.40;;
16075;SDS011;8142;48.242;11.644;2024-02-15T02:09:14;2.67;;;1.50;;
16075;SDS011;8142;48.242;11.644;2024-02-15T02:11:44;1.90;;;1.70;;
16075;SDS011;8142;48.242;11.644;2024-02-15T02:14:11;2.20;;;1.60;;
16075;SDS011;8142;48.242;11.644;2024-02-15T02:16:37;2.50;;;1.70;;
16075;SDS011;8142;48.242;11.644;2024-02-15T02:19:05;2.73;;;1.80;;
16075;SDS011;8142;48.242;11.644;2024-02-15T02:21:34;2.97;;;1.60;;
16075;SDS011;8142;48.242;11.644;2024-02-15T02:24:02;3.93;;;1.87;;
16075;SDS011;8142;48.242;11.644;2024-02-15T02:26:33;2.17;;;1.63;;
16075;SDS011;8142;48.242;11.644;2024-02-15T02:29:00;2.47;;;1.80;;
16075;SDS011;8142;48.242;11.644;2024-02-15T02:31:36;1.70;;;1.53;;
16075;SDS011;8142;48.242;11.644;2024-02-15T02:34:02;1.70;;;1.53;;
16075;SDS011;8142;48.242;11.644;2024-02-15T02:36:29;1.60;;;1.50;;
16075;SDS011;8142;48.242;11.644;2024-02-15T02:38:55;1.90;;;1.63;;
16075;SDS011;8142;48.242;11.644;2024-02-15T02:41:26;1.53;;;1.43;;
16075;SDS011;8142;48.242;11.644;2024-02-15T02:43:54;1.80;;;1.50;;
16075;SDS011;8142;48.242;11.644;2024-02-15T02:46:21;2.70;;;1.80;;
16075;SDS011;8142;48.242;11.644;2024-02-15T02:48:47;4.17;;;1.80;;
16075;SDS011;8142;48.242;11.644;2024-02-15T02:51:13;1.70;;;1.60;;
16075;SDS011;8142;48.242;11.644;2024-02-15T02:53:39;2.43;;;1.80;;
16075;SDS011;8142;48.242;11.644;2024-02-15T02:56:05;3.47;;;1.60;;
16075;SDS011;8142;48.242;11.644;2024-02-15T02:58:33;2.93;;;1.70;;
16075;SDS011;8142;48.242;11.644;2024-02-15T03:00:59;2.37;;;1.80;;
16075;SDS011;8142;48.242;11.644;2024-02-15T03:03:26;3.03;;;1.80;;
16075;SDS011;8142;48.242;11.644;2024-02-15T03:05:51;1.77;;;1.63;;
16075;SDS011;8142;48.242;11.644;2024-02-15T03:08:19;2.40;;;1.67;;
16075;SDS011;8142;48.242;11.644;2024-02-15T03:10:45;2.30;;;1.73;;
16075;SDS011;8142;48.242;11.644;2024-02-15T03:13:12;2.33;;;1.87;;
16075;SDS011;8142;48.242;11.644;2024-02-15T03:15:38;2.27;;;1.63;;
16075;SDS011;8142;48.242;11.644;2024-02-15T03:18:04;1.77;;;1.60;;
16075;SDS011;8142;48.242;11.644;2024-02-15T03:20:32;3.40;;;1.70;;
16075;SDS011;8142;48.242;11.644;2024-02-15T03:22:59;1.90;;;1.70;;
16075;SDS011;8142;48.242;11.644;2024-02-15T03:25:28;2.00;;;1.67;;
16075;SDS011;8142;48.242;11.644;2024-02-15T03:27:55;1.50;;;1.40;;
16075;SDS011;8142;48.242;11.644;2024-02-15T03:30:23;1.73;;;1.60;;
16075;SDS011;8142;48.242;11.644;2024-02-15T03:32:54;2.30;;;1.90;;
16075;SDS011;8142;48.242;11.644;2024-02-15T03:35:21;1.63;;;1.40;;
16075;SDS011;8142;48.242;11.644;2024-02-15T03:37:48;2.57;;;1.60;;
16075;SDS011;8142;48.242;11.644;2024-02-15T03:40:17;1.93;;;1.70;;
16075;SDS011;8142;48.242;11.644;2024-02-15T03:42:47;1.70;;;1.40;;
16075;SDS011;8142;48.242;11.644;2024-02-15T03:45:13;4.10;;;1.80;;
16075;SDS011;8142;48.242;11.644;2024-02-15T03:47:39;2.33;;;1.50;;
16075;SDS011;8142;48.242;11.644;2024-02-15T03:50:06;2.47;;;1.60;;
16075;SDS011;8142;48.242;11.644;2024-02-15T03:52:36;2.37;;;1.60;;
16075;SDS011;8142;48.242;11.644;2024-02-15T03:55:03;3.57;;;1.80;;
16075;SDS011;8142;48.242;11.644;2024-02-15T03:57:29;3.10;;;1.80;;
16075;SDS011;8142;48.242;11.644;2024-02-15T03:59:58;3.63;;;2.03;;
16075;SDS011;8142;48.242;11.644;2024-02-15T04:02:24;3.77;;;1.87;;
16075;SDS011;8142;48.242;11.644;2024-02-15T04:04:55;3.00;;;1.80;;
16075;SDS011;8142;48.242;11.644;2024-02-15T04:07:22;2.57;;;1.93;;
16075;SDS011;8142;48.242;11.644;2024-02-15T04:09:50;1.50;;;1.40;;
16075;SDS011;8142;48.242;11.644;2024-02-15T04:12:16;1.70;;;1.60;;
16075;SDS011;8142;48.242;11.644;2024-02-15T04:14:43;2.20;;;1.77;;
16075;SDS011;8142;48.242;11.644;2024-02-15T04:17:12;2.00;;;1.80;;
16075;SDS011;8142;48.242;11.644;2024-02-15T04:19:48;1.77;;;1.67;;
16075;SDS011;8142;48.242;11.644;2024-02-15T04:22:19;2.73;;;1.80;;
16075;SDS011;8142;48.242;11.644;2024-02-15T04:24:45;2.57;;;1.73;;
16075;SDS011;8142;48.242;11.644;2024-02-15T04:27:11;2.17;;;1.70;;
16075;SDS011;8142;48.242;11.644;2024-02-15T04:29:39;2.17;;;1.70;;
16075;SDS011;8142;48.242;11.644;2024-02-15T04:32:09;2.70;;;1.63;;
16075;SDS011;8142;48.242;11.644;2024-02-15T04:34:37;3.40;;;1.53;;
16075;SDS011;8142;48.242;11.644;2024-02-15T04:37:03;4.03;;;1.77;;
16075;SDS011;8142;48.242;11.644;2024-02-15T04:39:32;2.67;;;1.80;;
16075;SDS011;8142;48.242;11.644;2024-02-15T04:42:02;3.07;;;1.80;;
16075;SDS011;8142;48.242;11.644;2024-02-15T04:44:30;3.43;;;1.70;;
16075;SDS011;8142;48.242;11.644;2024-02-15T04:47:00;2.43;;;1.80;;
16075;SDS011;8142;48.242;11.644;2024-02-15T04:49:29;2.43;;;1.80;;
16075;SDS011;8142;48.242;11.644;2024-02-15T04:51:55;1.80;;;1.70;;
16075;SDS011;8142;48.242;11.644;2024-02-15T04:54:23;3.43;;;1.87;;
16075;SDS011;8142;48.242;11.644;2024-02-15T04:56:49;1.97;;;1.77;;
16075;SDS011;8142;48.242;11.644;2024-02-15T04:59:20;3.17;;;1.77;;
16075;SDS011;8142;48.242;11.644;2024-02-15T05:01:49;2.13;;;1.70;;
16075;SDS011;8142;48.242;11.644;2024-02-15T05:04:15;2.93;;;2.00;;
16075;SDS011;8142;48.242;11.644;2024-02-15T05:06:41;2.53;;;1.90;;
16075;SDS011;8142;48.242;11.644;2024-02-15T05:09:07;2.47;;;1.90;;
16075;SDS011;8142;48.242;11.644;2024-02-15T05:11:39;3.20;;;2.00;;
16075;SDS011;8142;48.242;11.644;2024-02-15T05:14:14;2.03;;;1.63;;
16075;SDS011;8142;48.242;11.644;2024-02-15T05:16:48;2.23;;;1.73;;
16075;SDS011;8142;48.242;11.644;2024-02-15T05:19:18;1.77;;;1.60;;
16075;SDS011;8142;48.242;11.644;2024-02-15T05:21:44;1.80;;;1.50;;
16075;SDS011;8142;48.242;11.644;2024-02-15T05:24:14;2.60;;;1.70;;
16075;SDS011;8142;48.242;11.644;2024-02-15T05:26:44;3.03;;;1.60;;
16075;SDS011;8142;48.242;11.644;2024-02-15T05:29:14;2.37;;;1.60;;
16075;SDS011;8142;48.242;11.644;2024-02-15T05:31:40;3.80;;;1.60;;
16075;SDS011;8142;48.242;11.644;2024-02-15T05:34:06;3.10;;;1.70;;
16075;SDS011;8142;48.242;11.644;2024-02-15T05:36:33;3.33;;;1.77;;
16075;SDS011;8142;48.242;11.644;2024-02-15T05:39:00;3.23;;;1.80;;
16075;SDS011;8142;48.242;11.644;2024-02-15T05:41:28;3.97;;;2.10;;
16075;SDS011;8142;48.242;11.644;2024-02-15T05:43:54;3.30;;;1.90;;
16075;SDS011;8142;48.242;11.644;2024-02-15T05:46:23;3.27;;;1.97;;
16075;SDS011;8142;48.242;11.644;2024-02-15T05:48:49;3.60;;;2.10;;
16075;SDS011;8142;48.242;11.644;2024-02-15T05:51:16;3.03;;;2.00;;
16075;SDS011;8142;48.242;11.644;2024-02-15T05:53:42;3.13;;;1.87;;
16075;SDS011;8142;48.242;11.644;2024-02-15T05:56:09;4.17;;;2.20;;
16075;SDS011;8142;48.242;11.644;2024-02-15T05:58:36;3.03;;;2.20;;
16075;SDS011;8142;48.242;11.644;2024-02-15T06:01:03;2.70;;;2.10;;
16075;SDS011;8142;48.242;11.644;2024-02-15T06:03:34;2.77;;;2.10;;
16075;SDS011;8142;48.242;11.644;2024-02-15T06:06:04;3.63;;;2.20;;
16075;SDS011;8142;48.242;11.644;2024-02-15T06:08:33;2.97;;;2.07;;
16075;SDS011;8142;48.242;11.644;2024-02-15T06:11:00;3.00;;;2.23;;
16075;SDS011;8142;48.242;11.644;2024-02-15T06:13:27;3.60;;;2.20;;
16075;SDS011;8142;48.242;11.644;2024-02-15T06:15:53;5.47;;;2.03;;
16075;SDS011;8142;48.242;11.644;2024-02-15T06:20:56;4.30;;;1.87;;
16075;SDS011;8142;48.242;11.644;2024-02-15T06:23:23;3.63;;;2.30;;
16075;SDS011;8142;48.242;11.644;2024-02-15T06:25:51;3.20;;;2.20;;
16075;SDS011;8142;48.242;11.644;2024-02-15T06:28:18;4.87;;;2.10;;
16075;SDS011;8142;48.242;11.644;2024-02-15T06:31:08;3.00;;;2.20;;
16075;SDS011;8142;48.242;11.644;2024-02-15T06:33:53;5.03;;;1.80;;
16075;SDS011;8142;48.242;11.644;2024-02-15T06:36:52;4.57;;;2.10;;
16075;SDS011;8142;48.242;11.644;2024-02-15T06:39:40;2.67;;;1.77;;
16075;SDS011;8142;48.242;11.644;2024-02-15T06:42:10;3.67;;;1.87;;
16075;SDS011;8142;48.242;11.644;2024-02-15T06:44:41;3.57;;;1.87;;
16075;SDS011;8142;48.242;11.644;2024-02-15T06:47:08;4.77;;;2.20;;
16075;SDS011;8142;48.242;11.644;2024-02-15T06:49:36;3.17;;;1.80;;
16075;SDS011;8142;48.242;11.644;2024-02-15T06:52:05;3.87;;;2.10;;
16075;SDS011;8142;48.242;11.644;2024-02-15T06:54:33;4.83;;;2.07;;
16075;SDS011;8142;48.242;11.644;2024-02-15T06:57:01;4.73;;;2.10;;
16075;SDS011;8142;48.242;11.644;2024-02-15T06:59:28;2.83;;;2.00;;
16075;SDS011;8142;48.242;11.644;2024-02-15T07:01:54;3.60;;;2.30;;
16075;SDS011;8142;48.242;11.644;2024-02-15T07:04:20;5.63;;;2.30;;
16075;SDS011;8142;48.242;11.644;2024-02-15T07:06:46;6.30;;;2.43;;
16075;SDS011;8142;48.242;11.644;2024-02-15T07:09:13;6.87;;;2.40;;
16075;SDS011;8142;48.242;11.644;2024-02-15T07:11:44;7.17;;;2.40;;
16075;SDS011;8142;48.242;11.644;2024-02-15T07:14:12;3.37;;;2.27;;
16075;SDS011;8142;48.242;11.644;2024-02-15T07:16:38;6.70;;;2.10;;
16075;SDS011;8142;48.242;11.644;2024-02-15T07:19:04;5.50;;;2.53;;
16075;SDS011;8142;48.242;11.644;2024-02-15T07:21:31;7.17;;;2.47;;
16075;SDS011;8142;48.242;11.644;2024-02-15T07:23:57;5.30;;;2.37;;
16075;SDS011;8142;48.242;11.644;2024-02-15T07:26:24;4.20;;;2.10;;
16075;SDS011;8142;48.242;11.644;2024-02-15T07:28:53;2.67;;;2.10;;
16075;SDS011;8142;48.242;11.644;2024-02-15T07:31:20;4.07;;;2.07;;
16075;SDS011;8142;48.242;11.644;2024-02-15T07:33:55;3.07;;;2.00;;
16075;SDS011;8142;48.242;11.644;2024-02-15T07:36:21;3.63;;;2.03;;
16075;SDS011;8142;48.242;11.644;2024-02-15T07:38:49;5.00;;;2.20;;
16075;SDS011;8142;48.242;11.644;2024-02-15T07:41:18;4.97;;;2.10;;
16075;SDS011;8142;48.242;11.644;2024-02-15T07:43:50;3.03;;;2.10;;
16075;SDS011;8142;48.242;11.644;2024-02-15T07:46:19;4.60;;;2.07;;
16075;SDS011;8142;48.242;11.644;2024-02-15T07:48:47;2.63;;;1.87;;
16075;SDS011;8142;48.242;11.644;2024-02-15T07:51:14;4.33;;;2.00;;
16075;SDS011;8142;48.242;11.644;2024-02-15T07:53:41;5.30;;;1.80;;
16075;SDS011;8142;48.242;11.644;2024-02-15T07:56:08;2.57;;;1.93;;
16075;SDS011;8142;48.242;11.644;2024-02-15T07:58:39;4.60;;;1.80;;
16075;SDS011;8142;48.242;11.644;2024-02-15T08:01:07;5.63;;;2.10;;
16075;SDS011;8142;48.242;11.644;2024-02-15T08:03:34;3.63;;;2.17;;
16075;SDS011;8142;48.242;11.644;2024-02-15T08:06:01;2.87;;;1.80;;
16075;SDS011;8142;48.242;11.644;2024-02-15T08:08:32;3.07;;;2.00;;
16075;SDS011;8142;48.242;11.644;2024-02-15T08:11:04;2.37;;;1.70;;
16075;SDS011;8142;48.242;11.644;2024-02-15T08:13:30;2.33;;;1.80;;
16075;SDS011;8142;48.242;11.644;2024-02-15T08:15:56;3.87;;;1.87;;
16075;SDS011;8142;48.242;11.644;2024-02-15T08:18:22;3.03;;;1.80;;
16075;SDS011;8142;48.242;11.644;2024-02-15T08:20:48;2.47;;;1.93;;
16075;SDS011;8142;48.242;11.644;2024-02-15T08:23:13;3.87;;;1.87;;
16075;SDS011;8142;48.242;11.644;2024-02-15T08:25:39;2.27;;;1.83;;
16075;SDS011;8142;48.242;11.644;2024-02-15T08:28:06;2.70;;;2.00;;
16075;SDS011;8142;48.242;11.644;2024-02-15T08:30:33;3.53;;;1.70;;
16075;SDS011;8142;48.242;11.644;2024-02-15T08:32:59;3.30;;;1.93;;
16075;SDS011;8142;48.242;11.644;2024-02-15T08:35:25;2.43;;;1.77;;
16075;SDS011;8142;48.242;11.644;2024-02-15T08:37:50;3.67;;;1.50;;
16075;SDS011;8142;48.242;11.644;2024-02-15T08:40:18;4.03;;;1.80;;
16075;SDS011;8142;48.242;11.644;2024-02-15T08:42:50;1.67;;;1.50;;
16075;SDS011;8142;48.242;11.644;2024-02-15T08:45:16;3.00;;;1.73;;
16075;SDS011;8142;48.242;11.644;2024-02-15T08:47:42;3.97;;;1.80;;
16075;SDS011;8142;48.242;11.644;2024-02-15T08:50:11;3.53;;;1.67;;
16075;SDS011;8142;48.242;11.644;2024-02-15T08:52:37;3.77;;;2.00;;
16075;SDS011;8142;48.242;11.644;2024-02-15T08:55:05;3.30;;;1.80;;
16075;SDS011;8142;48.242;11.644;2024-02-15T08:57:32;6.20;;;2.20;;
16075;SDS011;8142;48.242;11.644;2024-02-15T08:59:59;2.90;;;2.10;;
16075;SDS011;8142;48.242;11.644;2024-02-15T09:02:25;3.97;;;2.30;;
16075;SDS011;8142;48.242;11.644;2024-02-15T09:04:51;5.43;;;2.00;;
16075;SDS011;8142;48.242;11.644;2024-02-15T09:07:17;4.00;;;2.23;;
16075;SDS011;8142;48.242;11.644;2024-02-15T09:09:42;5.00;;;2.23;;
16075;SDS011;8142;48.242;11.644;2024-02-15T09:12:08;3.43;;;2.30;;
16075;SDS011;8142;48.242;11.644;2024-02-15T09:14:34;3.20;;;2.40;;
16075;SDS011;8142;48.242;11.644;2024-02-15T09:17:04;6.03;;;2.73;;
16075;SDS011;8142;48.242;11.644;2024-02-15T09:19:36;5.13;;;2.67;;
16075;SDS011;8142;48.242;11.644;2024-02-15T09:22:02;5.00;;;2.60;;
16075;SDS011;8142;48.242;11.644;2024-02-15T09:24:31;3.43;;;2.37;;
16075;SDS011;8142;48.242;11.644;2024-02-15T09:27:01;4.87;;;2.30;;
16075;SDS011;8142;48.242;11.644;2024-02-15T09:29:27;5.50;;;2.60;;
16075;SDS011;8142;48.242;11.644;2024-02-15T09:31:55;4.77;;;2.37;;
16075;SDS011;8142;48.242;11.644;2024-02-15T09:34:23;3.97;;;2.60;;
16075;SDS011;8142;48.242;11.644;2024-02-15T09:36:50;5.33;;;2.57;;
16075;SDS011;8142;48.242;11.644;2024-02-15T09:39:16;3.93;;;2.23;;
16075;SDS011;8142;48.242;11.644;2024-02-15T09:41:43;3.83;;;2.30;;
16075;SDS011;8142;48.242;11.644;2024-02-15T09:44:09;4.67;;;2.50;;
16075;SDS011;8142;48.242;11.644;2024-02-15T09:46:36;6.17;;;2.43;;
16075;SDS011;8142;48.242;11.644;2024-02-15T09:49:10;3.73;;;2.40;;
16075;SDS011;8142;48.242;11.644;2024-02-15T09:51:37;2.57;;;1.90;;
16075;SDS011;8142;48.242;11.644;2024-02-15T09:54:05;4.43;;;2.17;;
16075;SDS011;8142;48.242;11.644;2024-02-15T09:56:34;4.50;;;2.30;;
16075;SDS011;8142;48.242;11.644;2024-02-15T09:59:01;2.17;;;1.97;;
16075;SDS011;8142;48.242;11.644;2024-02-15T10:01:27;2.63;;;2.00;;
16075;SDS011;8142;48.242;11.644;2024-02-15T10:03:57;3.30;;;2.00;;
16075;SDS011;8142;48.242;11.644;2024-02-15T10:06:24;5.23;;;1.83;;
16075;SDS011;8142;48.242;11.644;2024-02-15T10:08:52;3.40;;;1.80;;
16075;SDS011;8142;48.242;11.644;2024-02-15T10:11:18;3.47;;;1.80;;
16075;SDS011;8142;48.242;11.644;2024-02-15T10:13:45;2.83;;;1.60;;
16075;SDS011;8142;48.242;11.644;2024-02-15T10:16:16;3.00;;;1.90;;
16075;SDS011;8142;48.242;11.644;2024-02-15T10:18:44;4.47;;;2.00;;
16075;SDS011;8142;48.242;11.644;2024-02-15T10:21:10;4.73;;;1.90;;
16075;SDS011;8142;48.242;11.644;2024-02-15T10:24:01;2.30;;;1.93;;
16075;SDS011;8142;48.242;11.644;2024-02-15T10:26:32;2.30;;;1.30;;
16075;SDS011;8142;48.242;11.644;2024-02-15T10:29:12;4.63;;;1.70;;
16075;SDS011;8142;48.242;11.644;2024-02-15T10:31:38;3.10;;;1.80;;
16075;SDS011;8142;48.242;11.644;2024-02-15T10:34:06;1.73;;;1.50;;
16075;SDS011;8142;48.242;11.644;2024-02-15T10:36:33;5.00;;;1.57;;
16075;SDS011;8142;48.242;11.644;2024-02-15T10:39:33;3.03;;;1.60;;
16075;SDS011;8142;48.242;11.644;2024-02-15T10:41:53;1.60;;;1.50;;
16075;SDS011;8142;48.242;11.644;2024-02-15T10:44:23;2.30;;;1.53;;
16075;SDS011;8142;48.242;11.644;2024-02-15T10:46:50;2.43;;;1.30;;
16075;SDS011;8142;48.242;11.644;2024-02-15T10:49:18;2.87;;;1.43;;
16075;SDS011;8142;48.242;11.644;2024-02-15T10:51:50;1.73;;;1.40;;
16075;SDS011;8142;48.242;11.644;2024-02-15T10:57:04;1.70;;;1.40;;
16075;SDS011;8142;48.242;11.644;2024-02-15T10:59:35;1.53;;;1.20;;
16075;SDS011;8142;48.242;11.644;2024-02-15T11:05:05;2.37;;;1.40;;
16075;SDS011;8142;48.242;11.644;2024-02-15T11:07:35;1.30;;;1.20;;
16075;SDS011;8142;48.242;11.644;2024-02-15T11:10:02;2.67;;;1.50;;
16075;SDS011;8142;48.242;11.644;2024-02-15T11:12:36;2.10;;;1.10;;
16075;SDS011;8142;48.242;11.644;2024-02-15T11:15:03;3.27;;;1.30;;
16075;SDS011;8142;48.242;11.644;2024-02-15T11:17:49;1.40;;;1.30;;
16075;SDS011;8142;48.242;11.644;2024-02-15T11:23:00;2.13;;;1.47;;
16075;SDS011;8142;48.242;11.644;2024-02-15T11:25:33;1.30;;;1.20;;
16075;SDS011;8142;48.242;11.644;2024-02-15T11:30:52;1.57;;;1.20;;
16075;SDS011;8142;48.242;11.644;2024-02-15T11:33:31;2.53;;;1.10;;
16075;SDS011;8142;48.242;11.644;2024-02-15T11:38:30;1.30;;;1.20;;
16075;SDS011;8142;48.242;11.644;2024-02-15T11:46:13;1.77;;;0.97;;
16075;SDS011;8142;48.242;11.644;2024-02-15T11:48:46;3.37;;;1.13;;
16075;SDS011;8142;48.242;11.644;2024-02-15T11:51:28;1.67;;;0.97;;
16075;SDS011;8142;48.242;11.644;2024-02-15T11:54:11;2.07;;;1.10;;
16075;SDS011;8142;48.242;11.644;2024-02-15T11:59:09;1.40;;;1.10;;
16075;SDS011;8142;48.242;11.644;2024-02-15T12:01:44;1.83;;;1.23;;
16075;SDS011;8142;48.242;11.644;2024-02-15T12:04:29;1.10;;;1.00;;
16075;SDS011;8142;48.242;11.644;2024-02-15T12:07:15;1.77;;;1.20;;
16075;SDS011;8142;48.242;11.644;2024-02-15T12:09:59;1.47;;;1.10;;
16075;SDS011;8142;48.242;11.644;2024-02-15T12:12:50;1.57;;;1.00;;
16075;SDS011;8142;48.242;11.644;2024-02-15T12:15:35;1.43;;;1.10;;
16075;SDS011;8142;48.242;11.644;2024-02-15T12:18:19;1.50;;;1.10;;
16075;SDS011;8142;48.242;11.644;2024-02-15T12:21:04;2.10;;;1.30;;
16075;SDS011;8142;48.242;11.644;2024-02-15T12:23:32;3.73;;;1.00;;
16075;SDS011;8142;48.242;11.644;2024-02-15T12:26:01;1.10;;;1.00;;
16075;SDS011;8142;48.242;11.644;2024-02-15T12:28:29;1.10;;;1.00;;
16075;SDS011;8142;48.242;11.644;2024-02-15T12:31:00;1.27;;;1.10;;
16075;SDS011;8142;48.242;11.644;2024-02-15T12:33:27;1.63;;;1.00;;
16075;SDS011;8142;48.242;11.644;2024-02-15T12:36:03;2.77;;;1.00;;
16075;SDS011;8142;48.242;11.644;2024-02-15T12:38:33;2.97;;;1.30;;
16075;SDS011;8142;48.242;11.644;2024-02-15T12:41:03;1.20;;;1.00;;
16075;SDS011;8142;48.242;11.644;2024-02-15T12:43:42;1.67;;;1.00;;
16075;SDS011;8142;48.242;11.644;2024-02-15T12:46:08;1.83;;;0.97;;
16075;SDS011;8142;48.242;11.644;2024-02-15T12:48:34;1.30;;;1.10;;
16075;SDS011;8142;48.242;11.644;2024-02-15T12:51:12;1.43;;;1.00;;
16075;SDS011;8142;48.242;11.644;2024-02-15T12:53:41;3.00;;;1.07;;
16075;SDS011;8142;48.242;11.644;2024-02-15T12:56:07;0.90;;;0.90;;
16075;SDS011;8142;48.242;11.644;2024-02-15T12:58:36;1.57;;;1.07;;
16075;SDS011;8142;48.242;11.644;2024-02-15T13:01:04;1.73;;;1.20;;
16075;SDS011;8142;48.242;11.644;2024-02-15T13:03:30;2.60;;;1.30;;
16075;SDS011;8142;48.242;11.644;2024-02-15T13:05:56;1.63;;;1.20;;
16075;SDS011;8142;48.242;11.644;2024-02-15T13:08:22;1.10;;;1.07;;
16075;SDS011;8142;48.242;11.644;2024-02-15T13:10:48;1.20;;;1.10;;
16075;SDS011;8142;48.242;11.644;2024-02-15T13:13:15;2.03;;;1.20;;
16075;SDS011;8142;48.242;11.644;2024-02-15T13:15:41;1.20;;;0.97;;
16075;SDS011;8142;48.242;11.644;2024-02-15T13:18:08;1.20;;;0.90;;
16075;SDS011;8142;48.242;11.644;2024-02-15T13:20:37;1.43;;;1.07;;
16075;SDS011;8142;48.242;11.644;2024-02-15T13:23:06;0.97;;;0.90;;
16075;SDS011;8142;48.242;11.644;2024-02-15T13:25:35;1.53;;;1.10;;
16075;SDS011;8142;48.242;11.644;2024-02-15T13:28:02;1.43;;;1.00;;
16075;SDS011;8142;48.242;11.644;2024-02-15T13:30:29;1.67;;;1.00;;
16075;SDS011;8142;48.242;11.644;2024-02-15T13:32:56;1.27;;;1.00;;
16075;SDS011;8142;48.242;11.644;2024-02-15T13:35:22;1.13;;;1.00;;
16075;SDS011;8142;48.242;11.644;2024-02-15T13:37:54;2.57;;;1.13;;
16075;SDS011;8142;48.242;11.644;2024-02-15T13:40:23;1.33;;;1.07;;
16075;SDS011;8142;48.242;11.644;2024-02-15T13:42:54;1.23;;;1.10;;
16075;SDS011;8142;48.242;11.644;2024-02-15T13:47:58;1.63;;;0.93;;
16075;SDS011;8142;48.242;11.644;2024-02-15T13:50:28;2.67;;;1.50;;
16075;SDS011;8142;48.242;11.644;2024-02-15T13:52:58;2.17;;;1.10;;
16075;SDS011;8142;48.242;11.644;2024-02-15T13:55:24;1.53;;;1.20;;
16075;SDS011;8142;48.242;11.644;2024-02-15T13:57:51;3.83;;;1.40;;
16075;SDS011;8142;48.242;11.644;2024-02-15T14:00:17;3.03;;;1.40;;
16075;SDS011;8142;48.242;11.644;2024-02-15T14:02:50;1.60;;;1.40;;
16075;SDS011;8142;48.242;11.644;2024-02-15T14:05:18;2.20;;;1.50;;
16075;SDS011;8142;48.242;11.644;2024-02-15T14:07:48;2.50;;;1.30;;
16075;SDS011;8142;48.242;11.644;2024-02-15T14:10:17;1.30;;;1.20;;
16075;SDS011;8142;48.242;11.644;2024-02-15T14:12:49;1.73;;;1.40;;
16075;SDS011;8142;48.242;11.644;2024-02-15T14:15:18;1.90;;;1.30;;
16075;SDS011;8142;48.242;11.644;2024-02-15T14:17:44;2.37;;;1.30;;
16075;SDS011;8142;48.242;11.644;2024-02-15T14:20:11;3.10;;;1.40;;
16075;SDS011;8142;48.242;11.644;2024-02-15T14:22:41;1.80;;;1.10;;
16075;SDS011;8142;48.242;11.644;2024-02-15T14:25:15;1.20;;;1.10;;
16075;SDS011;8142;48.242;11.644;2024-02-15T14:27:41;2.10;;;1.30;;
16075;SDS011;8142;48.242;11.644;2024-02-15T14:30:13;2.23;;;1.40;;
16075;SDS011;8142;48.242;11.644;2024-02-15T14:32:57;1.57;;;1.47;;
16075;SDS011;8142;48.242;11.644;2024-02-15T14:35:32;3.50;;;1.53;;
16075;SDS011;8142;48.242;11.644;2024-02-15T14:38:08;1.93;;;1.30;;
16075;SDS011;8142;48.242;11.644;2024-02-15T14:40:38;2.00;;;1.40;;
16075;SDS011;8142;48.242;11.644;2024-02-15T14:43:06;2.70;;;1.40;;
16075;SDS011;8142;48.242;11.644;2024-02-15T14:45:40;1.50;;;1.40;;
16075;SDS011;8142;48.242;11.644;2024-02-15T14:48:07;2.10;;;1.40;;
16075;SDS011;8142;48.242;11.644;2024-02-15T14:50:41;2.50;;;1.50;;
16075;SDS011;8142;48.242;11.644;2024-02-15T14:53:08;3.00;;;1.60;;
16075;SDS011;8142;48.242;11.644;2024-02-15T14:55:34;1.50;;;1.40;;
16075;SDS011;8142;48.242;11.644;2024-02-15T14:58:00;1.50;;;1.20;;
16075;SDS011;8142;48.242;11.644;2024-02-15T15:00:26;1.90;;;1.20;;
16075;SDS011;8142;48.242;11.644;2024-02-15T15:02:52;1.40;;;1.30;;
16075;SDS011;8142;48.242;11.644;2024-02-15T15:05:22;1.30;;;1.17;;
16075;SDS011;8142;48.242;11.644;2024-02-15T15:08:07;1.70;;;1.30;;
16075;SDS011;8142;48.242;11.644;2024-02-15T15:10:52;1.37;;;1.27;;
16075;SDS011;8142;48.242;11.644;2024-02-15T15:13:39;2.70;;;1.33;;
16075;SDS011;8142;48.242;11.644;2024-02-15T15:16:05;3.40;;;1.30;;
16075;SDS011;8142;48.242;11.644;2024-02-15T15:18:32;2.20;;;1.37;;
16075;SDS011;8142;48.242;11.644;2024-02-15T15:20:59;1.30;;;1.20;;
16075;SDS011;8142;48.242;11.644;2024-02-15T15:23:26;1.83;;;1.20;;
16075;SDS011;8142;48.242;11.644;2024-02-15T15:25:56;1.80;;;1.10;;